Date,TemperatureHighF,TemperatureAvgF,TemperatureLowF,DewpointHighF,DewpointAvgF,DewpointLowF,HumidityHigh,HumidityAvg,HumidityLow,PressureMaxIn,PressureMinIn,WindSpeedMaxMPH,WindSpeedAvgMPH,GustSpeedMaxMPH,PrecipitationSumIn
2013-3-1,56.1,39.8,28.6,50.1,36.6,28.3,99,90,63,30.79,30.65,4,1,8,0.00
2013-3-2,62.2,42.9,26.4,50.1,39.1,26.0,99,88,60,30.66,30.46,7,2,9,0.00
2013-3-3,49.5,43.2,39.7,47.3,41.9,39.5,99,95,83,30.49,30.32,9,2,11,0.00
2013-3-4,47.7,40.0,29.5,43.1,38.0,29.2,99,93,73,30.32,29.96,4,1,4,0.00
2013-3-5,56.5,38.1,27.3,47.6,34.9,27.1,99,90,59,29.97,29.87,6,1,9,0.00
2013-3-6,41.7,38.6,31.1,41.3,38.4,30.9,99,99,99,29.97,29.90,9,3,11,0.00
2013-3-7,44.1,41.4,40.1,43.8,41.1,39.8,99,99,99,29.90,29.83,7,5,17,0.11
2013-3-8,40.5,38.8,37.6,40.2,38.5,37.3,99,99,99,29.99,29.84,8,5,15,0.19
2013-3-9,39.2,37.6,36.1,38.8,36.1,31.3,99,94,83,30.18,29.98,15,8,19,0.07
2013-3-10,43.2,33.5,26.6,38.1,31.4,25.4,99,92,75,30.37,30.17,13,6,18,0.05
2013-3-11,40.5,29.6,21.4,34.9,25.8,20.4,99,86,65,30.40,30.35,13,4,16,0.02
2013-3-12,45.7,34.7,22.1,38.4,30.1,20.8,96,84,65,30.35,30.12,8,3,12,0.00
2013-3-13,53.8,37.5,26.1,37.8,31.2,25.8,99,80,50,30.21,30.09,9,3,13,0.00
2013-3-14,47.7,36.4,25.3,43.4,35.4,25.1,99,96,84,30.20,29.78,10,4,16,0.04
2013-3-15,50.7,41.2,30.4,46.1,39.6,30.1,99,94,74,29.78,29.56,12,5,18,0.04
2013-3-16,37.9,33.3,26.6,37.7,33.1,26.4,99,99,99,29.60,29.39,7,2,10,0.20
2013-3-17,45.9,37.8,30.0,44.9,37.5,29.8,99,99,90,29.52,29.36,10,3,14,0.07
2013-3-18,40.1,36.2,32.0,39.8,36.0,31.8,99,99,99,29.78,29.52,17,8,23,0.07
2013-3-19,38.3,33.8,32.5,38.0,33.5,28.2,99,99,99,29.92,29.78,16,9,24,0.30
2013-3-20,41.9,34.8,29.3,41.6,34.1,29.1,99,97,82,30.30,29.91,5,2,9,0.09
2013-3-21,47.3,35.1,28.2,42.7,32.9,28.0,99,92,71,30.33,30.28,6,3,17,0.05
2013-3-22,36.7,34.7,33.4,34.9,33.1,31.4,99,94,86,30.33,30.25,12,7,20,0.07
2013-3-23,34.7,33.8,33.3,33.3,31.1,27.6,98,90,79,30.48,30.32,10,7,24,0.02
2013-3-24,36.9,34.4,32.9,31.2,29.3,27.5,87,82,73,30.57,30.47,8,5,16,0.00
2013-3-25,37.9,34.9,33.3,32.8,30.6,28.5,96,84,74,30.58,30.50,9,4,13,0.00
2013-3-26,46.6,34.4,26.8,39.3,31.6,25.8,99,90,70,30.50,30.41,10,3,14,0.02
2013-3-27,45.7,34.5,28.4,44.5,32.0,28.2,99,91,67,30.41,30.34,14,3,16,0.04
2013-3-28,47.5,36.4,27.0,41.1,32.7,26.7,99,87,65,30.35,30.27,5,2,8,0.02
2013-3-29,50.0,34.9,25.3,40.7,31.3,25.1,99,88,55,30.27,30.16,12,2,15,0.01
2013-3-30,50.7,32.9,22.1,39.0,29.1,21.9,99,87,55,30.26,30.19,4,1,5,0.00
2013-3-31,48.9,34.4,20.8,42.7,28.5,20.6,99,81,50,30.26,30.23,6,2,12,0.00